sensor_id;sensor_type;location;lat;lon;timestamp;temperature;humidity
66740;DHT22;53653;52.188;8.602;2023-03-14T00:01:19;11.75;76.39
66740;DHT22;53653;52.188;8.602;2023-03-14T00:03:54;11.80;76.22
66740;DHT22;53653;52.188;8.602;2023-03-14T00:06:32;11.76;76.25
66740;DHT22;53653;52.188;8.602;2023-03-14T00:09:06;11.76;76.28
66740;DHT22;53653;52.188;8.602;2023-03-14T00:11:58;11.83;76.24
66740;DHT22;53653;52.188;8.602;2023-03-14T00:14:23;11.73;76.33
66740;DHT22;53653;52.188;8.602;2023-03-14T00:21:07;11.62;77.04
66740;DHT22;53653;52.188;8.602;2023-03-14T00:23:34;11.72;76.82
66740;DHT22;53653;52.188;8.602;2023-03-14T00:26:04;11.73;76.59
66740;DHT22;53653;52.188;8.602;2023-03-14T00:32:51;11.69;76.86
66740;DHT22;53653;52.188;8.602;2023-03-14T00:35:17;11.58;77.29
66740;DHT22;53653;52.188;8.602;2023-03-14T00:38:08;11.58;77.30
66740;DHT22;53653;52.188;8.602;2023-03-14T00:40:33;11.46;77.57
66740;DHT22;53653;52.188;8.602;2023-03-14T00:42:59;11.46;77.66
66740;DHT22;53653;52.188;8.602;2023-03-14T00:45:25;11.51;77.60
66740;DHT22;53653;52.188;8.602;2023-03-14T00:47:51;11.40;77.79
66740;DHT22;53653;52.188;8.602;2023-03-14T00:50:17;11.46;77.69
66740;DHT22;53653;52.188;8.602;2023-03-14T00:52:45;11.39;77.99
66740;DHT22;53653;52.188;8.602;2023-03-14T00:55:11;11.43;78.00
66740;DHT22;53653;52.188;8.602;2023-03-14T00:57:43;11.42;77.85
66740;DHT22;53653;52.188;8.602;2023-03-14T01:03:56;11.58;77.30
66740;DHT22;53653;52.188;8.602;2023-03-14T01:06:24;11.53;77.44
66740;DHT22;53653;52.188;8.602;2023-03-14T01:08:50;11.53;77.38
66740;DHT22;53653;52.188;8.602;2023-03-14T01:11:23;11.47;77.71
66740;DHT22;53653;52.188;8.602;2023-03-14T01:13:50;11.52;77.52
66740;DHT22;53653;52.188;8.602;2023-03-14T01:16:17;11.56;77.22
66740;DHT22;53653;52.188;8.602;2023-03-14T01:18:44;11.55;77.37
66740;DHT22;53653;52.188;8.602;2023-03-14T01:21:13;11.62;77.09
66740;DHT22;53653;52.188;8.602;2023-03-14T01:23:39;11.58;77.14
66740;DHT22;53653;52.188;8.602;2023-03-14T01:26:08;11.61;76.91
66740;DHT22;53653;52.188;8.602;2023-03-14T01:28:34;11.61;76.95
66740;DHT22;53653;52.188;8.602;2023-03-14T01:31:09;11.62;76.78
66740;DHT22;53653;52.188;8.602;2023-03-14T01:33:35;11.63;76.74
66740;DHT22;53653;52.188;8.602;2023-03-14T01:36:01;11.73;76.07
66740;DHT22;53653;52.188;8.602;2023-03-14T01:38:33;11.69;76.18
66740;DHT22;53653;52.188;8.602;2023-03-14T01:41:00;11.63;76.45
66740;DHT22;53653;52.188;8.602;2023-03-14T01:43:26;11.63;76.30
66740;DHT22;53653;52.188;8.602;2023-03-14T01:46:33;11.65;76.08
66740;DHT22;53653;52.188;8.602;2023-03-14T01:49:26;11.69;75.96
66740;DHT22;53653;52.188;8.602;2023-03-14T01:52:19;11.67;75.82
66740;DHT22;53653;52.188;8.602;2023-03-14T01:54:50;11.77;75.62
66740;DHT22;53653;52.188;8.602;2023-03-14T02:03:01;11.83;75.03
66740;DHT22;53653;52.188;8.602;2023-03-14T02:05:28;11.80;75.10
66740;DHT22;53653;52.188;8.602;2023-03-14T02:08:04;11.77;75.16
66740;DHT22;53653;52.188;8.602;2023-03-14T02:14:32;11.87;74.78
66740;DHT22;53653;52.188;8.602;2023-03-14T02:17:18;11.84;74.78
66740;DHT22;53653;52.188;8.602;2023-03-14T02:20:38;11.83;74.67
66740;DHT22;53653;52.188;8.602;2023-03-14T02:23:05;11.84;74.59
66740;DHT22;53653;52.188;8.602;2023-03-14T02:28:16;11.77;74.85
66740;DHT22;53653;52.188;8.602;2023-03-14T02:30:42;11.77;75.02
66740;DHT22;53653;52.188;8.602;2023-03-14T02:33:11;11.72;76.84
66740;DHT22;53653;52.188;8.602;2023-03-14T02:35:52;11.73;77.42
66740;DHT22;53653;52.188;8.602;2023-03-14T02:40:54;11.52;79.82
66740;DHT22;53653;52.188;8.602;2023-03-14T02:43:20;11.29;80.66
66740;DHT22;53653;52.188;8.602;2023-03-14T02:45:52;11.10;81.98
66740;DHT22;53653;52.188;8.602;2023-03-14T02:48:33;10.91;82.68
66740;DHT22;53653;52.188;8.602;2023-03-14T02:51:00;10.84;82.93
66740;DHT22;53653;52.188;8.602;2023-03-14T02:53:32;10.68;83.64
66740;DHT22;53653;52.188;8.602;2023-03-14T02:56:02;10.53;82.95
66740;DHT22;53653;52.188;8.602;2023-03-14T02:58:30;10.35;82.86
66740;DHT22;53653;52.188;8.602;2023-03-14T03:01:04;10.19;82.70
66740;DHT22;53653;52.188;8.602;2023-03-14T03:03:30;10.15;82.83
66740;DHT22;53653;52.188;8.602;2023-03-14T03:05:56;10.08;83.55
66740;DHT22;53653;52.188;8.602;2023-03-14T03:08:24;9.85;84.06
66740;DHT22;53653;52.188;8.602;2023-03-14T03:10:50;9.94;83.35
66740;DHT22;53653;52.188;8.602;2023-03-14T03:13:16;9.85;84.27
66740;DHT22;53653;52.188;8.602;2023-03-14T03:15:43;9.85;84.04
66740;DHT22;53653;52.188;8.602;2023-03-14T03:18:08;9.78;84.30
66740;DHT22;53653;52.188;8.602;2023-03-14T03:20:34;9.77;84.41
66740;DHT22;53653;52.188;8.602;2023-03-14T03:23:00;9.74;84.20
66740;DHT22;53653;52.188;8.602;2023-03-14T03:25:26;9.61;84.55
66740;DHT22;53653;52.188;8.602;2023-03-14T03:27:52;9.67;84.34
66740;DHT22;53653;52.188;8.602;2023-03-14T03:30:18;9.69;84.51
66740;DHT22;53653;52.188;8.602;2023-03-14T03:32:44;9.61;84.81
66740;DHT22;53653;52.188;8.602;2023-03-14T03:35:11;9.62;84.56
66740;DHT22;53653;52.188;8.602;2023-03-14T03:37:38;9.58;84.70
66740;DHT22;53653;52.188;8.602;2023-03-14T03:40:06;9.58;84.76
66740;DHT22;53653;52.188;8.602;2023-03-14T03:42:34;9.57;84.85
66740;DHT22;53653;52.188;8.602;2023-03-14T03:45:00;9.65;84.62
66740;DHT22;53653;52.188;8.602;2023-03-14T03:47:26;9.67;84.59
66740;DHT22;53653;52.188;8.602;2023-03-14T03:49:52;9.58;84.78
66740;DHT22;53653;52.188;8.602;2023-03-14T03:52:18;9.60;84.70
66740;DHT22;53653;52.188;8.602;2023-03-14T03:54:43;9.50;85.04
66740;DHT22;53653;52.188;8.602;2023-03-14T03:57:09;9.51;84.99
66740;DHT22;53653;52.188;8.602;2023-03-14T03:59:34;9.50;85.13
66740;DHT22;53653;52.188;8.602;2023-03-14T04:02:00;9.51;85.08
66740;DHT22;53653;52.188;8.602;2023-03-14T04:04:25;9.43;85.43
66740;DHT22;53653;52.188;8.602;2023-03-14T04:06:52;9.44;85.25
66740;DHT22;53653;52.188;8.602;2023-03-14T04:09:17;9.47;85.32
66740;DHT22;53653;52.188;8.602;2023-03-14T04:11:46;9.48;85.05
66740;DHT22;53653;52.188;8.602;2023-03-14T04:14:34;9.53;85.02
66740;DHT22;53653;52.188;8.602;2023-03-14T04:17:08;9.44;84.95
66740;DHT22;53653;52.188;8.602;2023-03-14T04:19:33;9.46;85.05
66740;DHT22;53653;52.188;8.602;2023-03-14T04:21:59;9.47;84.89
66740;DHT22;53653;52.188;8.602;2023-03-14T04:24:30;9.36;85.44
66740;DHT22;53653;52.188;8.602;2023-03-14T04:26:56;9.37;85.36
66740;DHT22;53653;52.188;8.602;2023-03-14T04:29:24;9.39;85.33
66740;DHT22;53653;52.188;8.602;2023-03-14T04:31:49;9.34;85.40
66740;DHT22;53653;52.188;8.602;2023-03-14T04:34:15;9.36;85.43
66740;DHT22;53653;52.188;8.602;2023-03-14T04:36:49;9.50;85.16
66740;DHT22;53653;52.188;8.602;2023-03-14T04:39:19;9.51;85.14
66740;DHT22;53653;52.188;8.602;2023-03-14T04:41:52;9.54;85.09
66740;DHT22;53653;52.188;8.602;2023-03-14T04:44:18;9.51;85.14
66740;DHT22;53653;52.188;8.602;2023-03-14T04:46:44;9.50;85.18
66740;DHT22;53653;52.188;8.602;2023-03-14T04:49:11;9.47;85.15
66740;DHT22;53653;52.188;8.602;2023-03-14T04:51:38;9.46;85.24
66740;DHT22;53653;52.188;8.602;2023-03-14T04:54:04;9.43;85.59
66740;DHT22;53653;52.188;8.602;2023-03-14T04:56:29;9.44;85.48
66740;DHT22;53653;52.188;8.602;2023-03-14T04:58:56;9.39;85.66
66740;DHT22;53653;52.188;8.602;2023-03-14T05:01:21;9.29;86.13
66740;DHT22;53653;52.188;8.602;2023-03-14T05:04:09;9.20;86.37
66740;DHT22;53653;52.188;8.602;2023-03-14T05:07:02;9.24;86.51
66740;DHT22;53653;52.188;8.602;2023-03-14T05:09:48;9.34;86.12
66740;DHT22;53653;52.188;8.602;2023-03-14T05:12:41;9.34;85.94
66740;DHT22;53653;52.188;8.602;2023-03-14T05:15:27;9.40;86.05
66740;DHT22;53653;52.188;8.602;2023-03-14T05:18:09;9.51;85.59
66740;DHT22;53653;52.188;8.602;2023-03-14T05:21:09;9.58;85.35
66740;DHT22;53653;52.188;8.602;2023-03-14T05:24:03;9.64;85.24
66740;DHT22;53653;52.188;8.602;2023-03-14T05:26:49;9.64;85.22
66740;DHT22;53653;52.188;8.602;2023-03-14T05:29:22;9.57;85.48
66740;DHT22;53653;52.188;8.602;2023-03-14T05:32:05;9.61;85.46
66740;DHT22;53653;52.188;8.602;2023-03-14T05:34:53;9.65;85.11
66740;DHT22;53653;52.188;8.602;2023-03-14T05:37:49;9.74;84.88
66740;DHT22;53653;52.188;8.602;2023-03-14T05:40:24;9.70;84.74
66740;DHT22;53653;52.188;8.602;2023-03-14T05:43:00;9.75;84.44
66740;DHT22;53653;52.188;8.602;2023-03-14T05:45:54;9.78;84.37
66740;DHT22;53653;52.188;8.602;2023-03-14T05:48:32;9.82;84.24
66740;DHT22;53653;52.188;8.602;2023-03-14T05:51:07;9.75;84.27
66740;DHT22;53653;52.188;8.602;2023-03-14T05:53:50;9.78;84.24
66740;DHT22;53653;52.188;8.602;2023-03-14T05:56:41;9.77;84.13
66740;DHT22;53653;52.188;8.602;2023-03-14T05:59:27;9.82;83.97
66740;DHT22;53653;52.188;8.602;2023-03-14T06:02:02;9.85;83.70
66740;DHT22;53653;52.188;8.602;2023-03-14T06:04:35;9.81;83.93
66740;DHT22;53653;52.188;8.602;2023-03-14T06:07:01;9.77;84.14
66740;DHT22;53653;52.188;8.602;2023-03-14T06:09:27;9.65;84.55
66740;DHT22;53653;52.188;8.602;2023-03-14T06:11:55;9.62;84.88
66740;DHT22;53653;52.188;8.602;2023-03-14T06:14:21;9.54;85.35
66740;DHT22;53653;52.188;8.602;2023-03-14T06:16:48;9.65;84.94
66740;DHT22;53653;52.188;8.602;2023-03-14T06:19:15;9.67;84.73
66740;DHT22;53653;52.188;8.602;2023-03-14T06:21:42;9.61;85.02
66740;DHT22;53653;52.188;8.602;2023-03-14T06:24:08;9.62;84.62
66740;DHT22;53653;52.188;8.602;2023-03-14T06:26:39;9.70;84.65
66740;DHT22;53653;52.188;8.602;2023-03-14T06:29:04;9.77;84.32
66740;DHT22;53653;52.188;8.602;2023-03-14T06:31:33;9.81;84.20
66740;DHT22;53653;52.188;8.602;2023-03-14T06:34:01;9.82;83.80
66740;DHT22;53653;52.188;8.602;2023-03-14T06:36:29;9.77;84.01
66740;DHT22;53653;52.188;8.602;2023-03-14T06:38:56;9.80;83.55
66740;DHT22;53653;52.188;8.602;2023-03-14T06:41:22;9.81;83.68
66740;DHT22;53653;52.188;8.602;2023-03-14T06:43:51;9.74;83.92
66740;DHT22;53653;52.188;8.602;2023-03-14T06:46:16;9.69;83.34
66740;DHT22;53653;52.188;8.602;2023-03-14T06:48:42;9.69;83.25
66740;DHT22;53653;52.188;8.602;2023-03-14T06:51:08;9.64;83.42
66740;DHT22;53653;52.188;8.602;2023-03-14T06:53:33;9.55;83.46
66740;DHT22;53653;52.188;8.602;2023-03-14T06:56:01;9.50;83.90
66740;DHT22;53653;52.188;8.602;2023-03-14T06:58:28;9.57;83.64
66740;DHT22;53653;52.188;8.602;2023-03-14T07:00:54;9.58;83.71
66740;DHT22;53653;52.188;8.602;2023-03-14T07:03:24;9.61;83.83
66740;DHT22;53653;52.188;8.602;2023-03-14T07:05:52;9.69;83.02
66740;DHT22;53653;52.188;8.602;2023-03-14T07:08:18;9.70;83.36
66740;DHT22;53653;52.188;8.602;2023-03-14T07:10:44;9.73;83.52
66740;DHT22;53653;52.188;8.602;2023-03-14T07:13:09;9.74;83.37
66740;DHT22;53653;52.188;8.602;2023-03-14T07:15:44;9.74;83.18
66740;DHT22;53653;52.188;8.602;2023-03-14T07:18:10;9.82;83.18
66740;DHT22;53653;52.188;8.602;2023-03-14T07:20:35;9.81;83.13
66740;DHT22;53653;52.188;8.602;2023-03-14T07:23:02;9.70;83.81
66740;DHT22;53653;52.188;8.602;2023-03-14T07:25:47;9.70;84.28
66740;DHT22;53653;52.188;8.602;2023-03-14T07:28:14;9.61;84.79
66740;DHT22;53653;52.188;8.602;2023-03-14T07:30:41;9.51;85.56
66740;DHT22;53653;52.188;8.602;2023-03-14T07:33:33;9.34;86.75
66740;DHT22;53653;52.188;8.602;2023-03-14T07:36:00;9.29;87.38
66740;DHT22;53653;52.188;8.602;2023-03-14T07:38:26;9.26;87.74
66740;DHT22;53653;52.188;8.602;2023-03-14T07:41:24;9.22;88.36
66740;DHT22;53653;52.188;8.602;2023-03-14T07:44:08;9.16;89.19
66740;DHT22;53653;52.188;8.602;2023-03-14T07:46:34;9.29;88.65
66740;DHT22;53653;52.188;8.602;2023-03-14T07:48:59;9.29;88.78
66740;DHT22;53653;52.188;8.602;2023-03-14T07:51:25;9.23;88.90
66740;DHT22;53653;52.188;8.602;2023-03-14T07:53:50;9.29;89.03
66740;DHT22;53653;52.188;8.602;2023-03-14T07:56:16;9.30;89.05
66740;DHT22;53653;52.188;8.602;2023-03-14T07:58:41;9.30;89.30
66740;DHT22;53653;52.188;8.602;2023-03-14T08:01:06;9.27;89.21
66740;DHT22;53653;52.188;8.602;2023-03-14T08:03:32;9.33;89.25
66740;DHT22;53653;52.188;8.602;2023-03-14T08:05:58;9.33;89.98
66740;DHT22;53653;52.188;8.602;2023-03-14T08:08:23;9.40;89.69
66740;DHT22;53653;52.188;8.602;2023-03-14T08:10:49;9.47;89.67
66740;DHT22;53653;52.188;8.602;2023-03-14T08:13:14;9.47;89.91
66740;DHT22;53653;52.188;8.602;2023-03-14T08:15:40;9.44;90.08
66740;DHT22;53653;52.188;8.602;2023-03-14T08:18:05;9.54;90.12
66740;DHT22;53653;52.188;8.602;2023-03-14T08:20:31;9.40;90.60
66740;DHT22;53653;52.188;8.602;2023-03-14T08:22:58;9.41;90.90
66740;DHT22;53653;52.188;8.602;2023-03-14T08:25:24;9.46;90.86
66740;DHT22;53653;52.188;8.602;2023-03-14T08:27:49;9.41;91.02
66740;DHT22;53653;52.188;8.602;2023-03-14T08:30:16;9.51;90.41
66740;DHT22;53653;52.188;8.602;2023-03-14T08:32:41;9.58;90.36
66740;DHT22;53653;52.188;8.602;2023-03-14T08:35:07;9.62;89.89
66740;DHT22;53653;52.188;8.602;2023-03-14T08:37:33;9.67;89.32
66740;DHT22;53653;52.188;8.602;2023-03-14T08:39:59;9.65;89.64
66740;DHT22;53653;52.188;8.602;2023-03-14T08:42:24;9.71;89.48
66740;DHT22;53653;52.188;8.602;2023-03-14T08:44:51;9.82;89.07
66740;DHT22;53653;52.188;8.602;2023-03-14T08:47:17;9.90;88.85
66740;DHT22;53653;52.188;8.602;2023-03-14T08:49:43;9.97;88.89
66740;DHT22;53653;52.188;8.602;2023-03-14T08:52:08;10.11;88.79
66740;DHT22;53653;52.188;8.602;2023-03-14T08:54:34;10.09;88.51
66740;DHT22;53653;52.188;8.602;2023-03-14T08:57:00;10.19;88.33
66740;DHT22;53653;52.188;8.602;2023-03-14T08:59:25;10.26;88.02
66740;DHT22;53653;52.188;8.602;2023-03-14T09:01:51;10.25;87.92
66740;DHT22;53653;52.188;8.602;2023-03-14T09:04:16;10.29;87.82
66740;DHT22;53653;52.188;8.602;2023-03-14T09:06:42;10.33;87.77
66740;DHT22;53653;52.188;8.602;2023-03-14T09:09:08;10.43;87.60
66740;DHT22;53653;52.188;8.602;2023-03-14T09:11:33;10.43;87.57
66740;DHT22;53653;52.188;8.602;2023-03-14T09:13:59;10.49;87.41
66740;DHT22;53653;52.188;8.602;2023-03-14T09:16:24;10.53;87.32
66740;DHT22;53653;52.188;8.602;2023-03-14T09:18:50;10.48;87.20
66740;DHT22;53653;52.188;8.602;2023-03-14T09:21:18;10.45;87.69
66740;DHT22;53653;52.188;8.602;2023-03-14T09:23:43;10.46;87.59
66740;DHT22;53653;52.188;8.602;2023-03-14T09:26:11;10.46;87.73
66740;DHT22;53653;52.188;8.602;2023-03-14T09:28:36;10.43;87.90
66740;DHT22;53653;52.188;8.602;2023-03-14T09:31:15;10.50;87.79
66740;DHT22;53653;52.188;8.602;2023-03-14T09:33:40;10.64;87.71
66740;DHT22;53653;52.188;8.602;2023-03-14T09:36:06;10.66;87.40
66740;DHT22;53653;52.188;8.602;2023-03-14T09:38:33;10.68;87.93
66740;DHT22;53653;52.188;8.602;2023-03-14T09:41:00;10.73;87.19
66740;DHT22;53653;52.188;8.602;2023-03-14T09:43:29;10.68;87.23
66740;DHT22;53653;52.188;8.602;2023-03-14T09:45:57;10.84;86.93
66740;DHT22;53653;52.188;8.602;2023-03-14T09:48:29;11.08;86.46
66740;DHT22;53653;52.188;8.602;2023-03-14T09:50:58;11.01;86.46
66740;DHT22;53653;52.188;8.602;2023-03-14T09:53:35;10.97;86.72
66740;DHT22;53653;52.188;8.602;2023-03-14T09:56:02;10.94;86.55
66740;DHT22;53653;52.188;8.602;2023-03-14T09:58:29;10.96;86.65
66740;DHT22;53653;52.188;8.602;2023-03-14T10:00:56;10.88;86.77
66740;DHT22;53653;52.188;8.602;2023-03-14T10:03:31;10.88;86.79
66740;DHT22;53653;52.188;8.602;2023-03-14T10:05:57;10.83;87.22
66740;DHT22;53653;52.188;8.602;2023-03-14T10:08:23;10.70;88.21
66740;DHT22;53653;52.188;8.602;2023-03-14T10:10:48;10.71;88.51
66740;DHT22;53653;52.188;8.602;2023-03-14T10:18:19;10.70;88.50
66740;DHT22;53653;52.188;8.602;2023-03-14T10:24:33;10.64;88.49
66740;DHT22;53653;52.188;8.602;2023-03-14T10:27:05;10.09;84.80
66740;DHT22;53653;52.188;8.602;2023-03-14T10:29:33;9.43;86.17
66740;DHT22;53653;52.188;8.602;2023-03-14T10:32:06;9.22;86.90
66740;DHT22;53653;52.188;8.602;2023-03-14T10:34:38;9.08;87.16
66740;DHT22;53653;52.188;8.602;2023-03-14T10:37:18;8.86;87.83
66740;DHT22;53653;52.188;8.602;2023-03-14T10:39:51;8.72;88.59
66740;DHT22;53653;52.188;8.602;2023-03-14T10:44:54;8.34;87.04
66740;DHT22;53653;52.188;8.602;2023-03-14T10:53:40;8.06;86.89
66740;DHT22;53653;52.188;8.602;2023-03-14T10:56:07;7.81;86.19
66740;DHT22;53653;52.188;8.602;2023-03-14T10:58:42;7.58;86.69
66740;DHT22;53653;52.188;8.602;2023-03-14T11:04:00;7.31;86.81
66740;DHT22;53653;52.188;8.602;2023-03-14T11:09:18;6.93;85.86
66740;DHT22;53653;52.188;8.602;2023-03-14T11:11:47;6.66;85.51
66740;DHT22;53653;52.188;8.602;2023-03-14T11:19:38;6.01;86.05
66740;DHT22;53653;52.188;8.602;2023-03-14T11:32:35;5.62;85.87
66740;DHT22;53653;52.188;8.602;2023-03-14T11:35:04;5.43;84.98
66740;DHT22;53653;52.188;8.602;2023-03-14T11:37:36;5.30;84.43
66740;DHT22;53653;52.188;8.602;2023-03-14T11:40:12;5.22;86.12
66740;DHT22;53653;52.188;8.602;2023-03-14T11:42:41;5.22;84.68
66740;DHT22;53653;52.188;8.602;2023-03-14T11:45:32;5.31;84.96
66740;DHT22;53653;52.188;8.602;2023-03-14T11:50:57;5.17;85.42
66740;DHT22;53653;52.188;8.602;2023-03-14T11:53:43;5.36;86.20
66740;DHT22;53653;52.188;8.602;2023-03-14T11:56:32;5.31;85.02
66740;DHT22;53653;52.188;8.602;2023-03-14T11:59:28;5.45;85.03
66740;DHT22;53653;52.188;8.602;2023-03-14T12:01:57;5.62;85.02
66740;DHT22;53653;52.188;8.602;2023-03-14T12:10:18;5.85;83.88
66740;DHT22;53653;52.188;8.602;2023-03-14T12:12:44;5.79;83.50
66740;DHT22;53653;52.188;8.602;2023-03-14T12:15:19;5.87;83.23
66740;DHT22;53653;52.188;8.602;2023-03-14T12:17:46;5.85;84.10
66740;DHT22;53653;52.188;8.602;2023-03-14T12:20:18;5.81;82.15
66740;DHT22;53653;52.188;8.602;2023-03-14T12:22:46;5.76;81.86
66740;DHT22;53653;52.188;8.602;2023-03-14T12:25:23;5.74;81.67
66740;DHT22;53653;52.188;8.602;2023-03-14T12:33:12;6.22;81.67
66740;DHT22;53653;52.188;8.602;2023-03-14T12:35:40;6.30;80.76
66740;DHT22;53653;52.188;8.602;2023-03-14T12:41:13;6.62;80.70
66740;DHT22;53653;52.188;8.602;2023-03-14T12:43:39;6.76;79.69
66740;DHT22;53653;52.188;8.602;2023-03-14T12:51:19;6.66;78.46
66740;DHT22;53653;52.188;8.602;2023-03-14T13:04:42;6.13;82.56
66740;DHT22;53653;52.188;8.602;2023-03-14T13:10:26;5.87;82.40
66740;DHT22;53653;52.188;8.602;2023-03-14T13:15:44;6.11;83.22
66740;DHT22;53653;52.188;8.602;2023-03-14T13:18:22;5.89;80.85
66740;DHT22;53653;52.188;8.602;2023-03-14T13:20:52;6.06;82.06
66740;DHT22;53653;52.188;8.602;2023-03-14T13:23:29;6.04;81.08
66740;DHT22;53653;52.188;8.602;2023-03-14T13:26:02;5.99;80.22
66740;DHT22;53653;52.188;8.602;2023-03-14T13:28:56;6.13;81.09
66740;DHT22;53653;52.188;8.602;2023-03-14T13:31:24;6.17;80.50
66740;DHT22;53653;52.188;8.602;2023-03-14T13:34:01;6.31;80.86
66740;DHT22;53653;52.188;8.602;2023-03-14T13:36:27;6.51;80.90
66740;DHT22;53653;52.188;8.602;2023-03-14T13:39:00;6.58;79.77
66740;DHT22;53653;52.188;8.602;2023-03-14T13:41:27;6.65;79.39
66740;DHT22;53653;52.188;8.602;2023-03-14T13:44:10;6.62;79.66
66740;DHT22;53653;52.188;8.602;2023-03-14T13:46:38;6.75;79.99
66740;DHT22;53653;52.188;8.602;2023-03-14T13:49:07;6.76;78.93
66740;DHT22;53653;52.188;8.602;2023-03-14T13:51:38;6.80;79.17
66740;DHT22;53653;52.188;8.602;2023-03-14T13:54:13;6.90;78.68
66740;DHT22;53653;52.188;8.602;2023-03-14T13:56:39;7.01;78.98
66740;DHT22;53653;52.188;8.602;2023-03-14T13:59:24;6.96;74.74
66740;DHT22;53653;52.188;8.602;2023-03-14T14:01:50;6.93;73.12
66740;DHT22;53653;52.188;8.602;2023-03-14T14:04:19;6.90;74.79
66740;DHT22;53653;52.188;8.602;2023-03-14T14:06:57;6.90;70.74
66740;DHT22;53653;52.188;8.602;2023-03-14T14:11:56;6.65;69.29
66740;DHT22;53653;52.188;8.602;2023-03-14T14:14:40;6.61;68.97
66740;DHT22;53653;52.188;8.602;2023-03-14T14:17:10;6.59;68.52
66740;DHT22;53653;52.188;8.602;2023-03-14T14:19:37;6.51;67.13
66740;DHT22;53653;52.188;8.602;2023-03-14T14:22:03;6.55;67.48
66740;DHT22;53653;52.188;8.602;2023-03-14T14:24:31;6.69;67.40
66740;DHT22;53653;52.188;8.602;2023-03-14T14:27:27;6.78;66.57
66740;DHT22;53653;52.188;8.602;2023-03-14T14:30:00;6.89;67.03
66740;DHT22;53653;52.188;8.602;2023-03-14T14:32:26;6.83;62.75
66740;DHT22;53653;52.188;8.602;2023-03-14T14:37:21;6.89;61.76
66740;DHT22;53653;52.188;8.602;2023-03-14T14:39:49;6.72;61.08
66740;DHT22;53653;52.188;8.602;2023-03-14T14:42:16;6.68;61.02
66740;DHT22;53653;52.188;8.602;2023-03-14T14:44:44;6.65;60.30
66740;DHT22;53653;52.188;8.602;2023-03-14T14:47:19;6.66;62.15
66740;DHT22;53653;52.188;8.602;2023-03-14T14:49:47;6.79;62.36
66740;DHT22;53653;52.188;8.602;2023-03-14T14:52:30;6.76;63.14
66740;DHT22;53653;52.188;8.602;2023-03-14T14:55:01;6.87;62.89
66740;DHT22;53653;52.188;8.602;2023-03-14T14:57:36;6.85;60.96
66740;DHT22;53653;52.188;8.602;2023-03-14T15:00:08;6.71;61.86
66740;DHT22;53653;52.188;8.602;2023-03-14T15:02:39;6.71;60.40
66740;DHT22;53653;52.188;8.602;2023-03-14T15:05:14;6.53;60.43
66740;DHT22;53653;52.188;8.602;2023-03-14T15:07:40;6.51;60.05
66740;DHT22;53653;52.188;8.602;2023-03-14T15:10:09;6.48;60.07
66740;DHT22;53653;52.188;8.602;2023-03-14T15:12:34;6.51;60.67
66740;DHT22;53653;52.188;8.602;2023-03-14T15:15:00;6.42;60.37
66740;DHT22;53653;52.188;8.602;2023-03-14T15:17:25;6.48;60.27
66740;DHT22;53653;52.188;8.602;2023-03-14T15:19:51;6.46;59.12
66740;DHT22;53653;52.188;8.602;2023-03-14T15:22:16;6.51;57.64
66740;DHT22;53653;52.188;8.602;2023-03-14T15:24:42;6.55;57.14
66740;DHT22;53653;52.188;8.602;2023-03-14T15:27:13;6.62;58.70
66740;DHT22;53653;52.188;8.602;2023-03-14T15:29:39;6.59;57.81
66740;DHT22;53653;52.188;8.602;2023-03-14T15:32:05;6.62;58.67
66740;DHT22;53653;52.188;8.602;2023-03-14T15:34:30;6.75;58.27
66740;DHT22;53653;52.188;8.602;2023-03-14T15:36:56;6.78;58.30
66740;DHT22;53653;52.188;8.602;2023-03-14T15:39:22;6.82;58.03
66740;DHT22;53653;52.188;8.602;2023-03-14T15:41:47;6.86;58.10
66740;DHT22;53653;52.188;8.602;2023-03-14T15:44:13;6.95;57.09
66740;DHT22;53653;52.188;8.602;2023-03-14T15:46:38;7.00;57.45
66740;DHT22;53653;52.188;8.602;2023-03-14T15:49:04;7.13;57.63
66740;DHT22;53653;52.188;8.602;2023-03-14T15:51:29;7.21;57.65
66740;DHT22;53653;52.188;8.602;2023-03-14T15:53:55;7.17;56.90
66740;DHT22;53653;52.188;8.602;2023-03-14T15:56:20;7.13;58.16
66740;DHT22;53653;52.188;8.602;2023-03-14T15:58:49;7.03;57.58
66740;DHT22;53653;52.188;8.602;2023-03-14T16:01:16;7.03;57.07
66740;DHT22;53653;52.188;8.602;2023-03-14T16:03:43;6.99;58.37
66740;DHT22;53653;52.188;8.602;2023-03-14T16:06:10;7.04;58.24
66740;DHT22;53653;52.188;8.602;2023-03-14T16:08:36;7.03;58.49
66740;DHT22;53653;52.188;8.602;2023-03-14T16:11:01;6.95;58.84
66740;DHT22;53653;52.188;8.602;2023-03-14T16:13:27;6.93;58.43
66740;DHT22;53653;52.188;8.602;2023-03-14T16:15:58;6.87;58.61
66740;DHT22;53653;52.188;8.602;2023-03-14T16:18:24;6.85;59.01
66740;DHT22;53653;52.188;8.602;2023-03-14T16:20:55;6.79;58.74
66740;DHT22;53653;52.188;8.602;2023-03-14T16:23:20;6.83;58.38
66740;DHT22;53653;52.188;8.602;2023-03-14T16:25:46;6.93;57.24
66740;DHT22;53653;52.188;8.602;2023-03-14T16:28:11;7.13;57.33
66740;DHT22;53653;52.188;8.602;2023-03-14T16:30:37;7.23;57.05
66740;DHT22;53653;52.188;8.602;2023-03-14T16:33:02;7.01;57.59
66740;DHT22;53653;52.188;8.602;2023-03-14T16:35:32;6.82;58.30
66740;DHT22;53653;52.188;8.602;2023-03-14T16:37:59;6.80;58.25
66740;DHT22;53653;52.188;8.602;2023-03-14T16:40:25;6.78;58.84
66740;DHT22;53653;52.188;8.602;2023-03-14T16:42:51;6.68;57.97
66740;DHT22;53653;52.188;8.602;2023-03-14T16:45:18;6.52;57.53
66740;DHT22;53653;52.188;8.602;2023-03-14T16:47:44;6.41;57.74
66740;DHT22;53653;52.188;8.602;2023-03-14T16:50:10;6.35;57.76
66740;DHT22;53653;52.188;8.602;2023-03-14T16:52:36;6.27;57.88
66740;DHT22;53653;52.188;8.602;2023-03-14T16:55:01;6.18;58.45
66740;DHT22;53653;52.188;8.602;2023-03-14T16:57:28;6.16;56.55
66740;DHT22;53653;52.188;8.602;2023-03-14T16:59:54;6.04;56.17
66740;DHT22;53653;52.188;8.602;2023-03-14T17:02:19;5.94;56.61
66740;DHT22;53653;52.188;8.602;2023-03-14T17:04:45;5.91;57.44
66740;DHT22;53653;52.188;8.602;2023-03-14T17:07:10;5.85;56.42
66740;DHT22;53653;52.188;8.602;2023-03-14T17:09:36;5.70;57.47
66740;DHT22;53653;52.188;8.602;2023-03-14T17:12:02;5.69;56.71
66740;DHT22;53653;52.188;8.602;2023-03-14T17:14:28;5.60;57.80
66740;DHT22;53653;52.188;8.602;2023-03-14T17:16:53;5.56;57.88
66740;DHT22;53653;52.188;8.602;2023-03-14T17:19:19;5.51;58.41
66740;DHT22;53653;52.188;8.602;2023-03-14T17:21:44;5.41;58.46
66740;DHT22;53653;52.188;8.602;2023-03-14T17:24:13;5.38;57.91
66740;DHT22;53653;52.188;8.602;2023-03-14T17:26:39;5.36;58.42
66740;DHT22;53653;52.188;8.602;2023-03-14T17:29:05;5.32;58.45
66740;DHT22;53653;52.188;8.602;2023-03-14T17:31:30;5.24;58.82
66740;DHT22;53653;52.188;8.602;2023-03-14T17:33:56;5.12;59.43
66740;DHT22;53653;52.188;8.602;2023-03-14T17:36:22;5.21;58.54
66740;DHT22;53653;52.188;8.602;2023-03-14T17:38:50;5.17;58.37
66740;DHT22;53653;52.188;8.602;2023-03-14T17:41:18;5.14;57.86
66740;DHT22;53653;52.188;8.602;2023-03-14T17:43:44;5.12;57.64
66740;DHT22;53653;52.188;8.602;2023-03-14T17:46:11;5.05;57.99
66740;DHT22;53653;52.188;8.602;2023-03-14T17:48:40;5.08;57.28
66740;DHT22;53653;52.188;8.602;2023-03-14T17:51:26;5.03;57.05